sensor_id;sensor_type;location;lat;lon;timestamp;temperature;humidity
53053;DHT22;38934;52.690;6.184;2022-07-23T00:00:36;14.60;99.90
53053;DHT22;38934;52.690;6.184;2022-07-23T00:03:01;14.60;99.90
53053;DHT22;38934;52.690;6.184;2022-07-23T00:05:27;14.60;99.90
53053;DHT22;38934;52.690;6.184;2022-07-23T00:07:52;14.90;99.90
53053;DHT22;38934;52.690;6.184;2022-07-23T00:10:18;14.50;99.90
53053;DHT22;38934;52.690;6.184;2022-07-23T00:12:44;14.50;99.90
53053;DHT22;38934;52.690;6.184;2022-07-23T00:15:09;14.40;99.90
53053;DHT22;38934;52.690;6.184;2022-07-23T00:17:35;14.40;99.90
53053;DHT22;38934;52.690;6.184;2022-07-23T00:20:01;14.30;99.90
53053;DHT22;38934;52.690;6.184;2022-07-23T00:22:27;14.30;99.90
53053;DHT22;38934;52.690;6.184;2022-07-23T00:24:55;14.30;99.90
53053;DHT22;38934;52.690;6.184;2022-07-23T00:27:20;14.20;99.90
53053;DHT22;38934;52.690;6.184;2022-07-23T00:29:46;14.20;99.90
53053;DHT22;38934;52.690;6.184;2022-07-23T00:32:11;14.20;99.90
53053;DHT22;38934;52.690;6.184;2022-07-23T00:34:37;14.20;99.90
53053;DHT22;38934;52.690;6.184;2022-07-23T00:37:03;14.80;99.90
53053;DHT22;38934;52.690;6.184;2022-07-23T00:39:28;14.10;99.90
53053;DHT22;38934;52.690;6.184;2022-07-23T00:41:54;14.00;99.90
53053;DHT22;38934;52.690;6.184;2022-07-23T00:44:22;14.00;99.90
53053;DHT22;38934;52.690;6.184;2022-07-23T00:46:50;14.00;99.90
53053;DHT22;38934;52.690;6.184;2022-07-23T00:49:22;14.00;99.90
53053;DHT22;38934;52.690;6.184;2022-07-23T00:51:48;13.90;99.90
53053;DHT22;38934;52.690;6.184;2022-07-23T00:54:18;13.90;99.90
53053;DHT22;38934;52.690;6.184;2022-07-23T00:56:45;13.90;99.90
53053;DHT22;38934;52.690;6.184;2022-07-23T00:59:11;13.90;99.90
53053;DHT22;38934;52.690;6.184;2022-07-23T01:01:37;13.80;99.90
53053;DHT22;38934;52.690;6.184;2022-07-23T01:04:03;13.80;99.90
53053;DHT22;38934;52.690;6.184;2022-07-23T01:06:32;13.70;99.90
53053;DHT22;38934;52.690;6.184;2022-07-23T01:08:59;13.70;99.90
53053;DHT22;38934;52.690;6.184;2022-07-23T01:11:24;13.70;99.90
53053;DHT22;38934;52.690;6.184;2022-07-23T01:13:50;13.70;99.90
53053;DHT22;38934;52.690;6.184;2022-07-23T01:16:16;13.70;99.90
53053;DHT22;38934;52.690;6.184;2022-07-23T01:18:41;13.60;99.90
53053;DHT22;38934;52.690;6.184;2022-07-23T01:21:08;13.90;99.90
53053;DHT22;38934;52.690;6.184;2022-07-23T01:23:34;13.60;99.90
53053;DHT22;38934;52.690;6.184;2022-07-23T01:25:59;14.10;99.90
53053;DHT22;38934;52.690;6.184;2022-07-23T01:28:25;13.50;99.90
53053;DHT22;38934;52.690;6.184;2022-07-23T01:30:51;13.50;99.90
53053;DHT22;38934;52.690;6.184;2022-07-23T01:33:16;13.50;99.90
53053;DHT22;38934;52.690;6.184;2022-07-23T01:35:42;14.00;99.90
53053;DHT22;38934;52.690;6.184;2022-07-23T01:38:07;13.50;99.90
53053;DHT22;38934;52.690;6.184;2022-07-23T01:40:33;13.50;99.90
53053;DHT22;38934;52.690;6.184;2022-07-23T01:42:58;13.40;99.90
53053;DHT22;38934;52.690;6.184;2022-07-23T01:45:24;13.40;99.90
53053;DHT22;38934;52.690;6.184;2022-07-23T01:47:50;13.40;99.90
53053;DHT22;38934;52.690;6.184;2022-07-23T01:50:15;13.40;99.90
53053;DHT22;38934;52.690;6.184;2022-07-23T01:52:41;13.40;99.90
53053;DHT22;38934;52.690;6.184;2022-07-23T01:55:07;13.40;99.90
53053;DHT22;38934;52.690;6.184;2022-07-23T01:57:33;13.40;99.90
53053;DHT22;38934;52.690;6.184;2022-07-23T01:59:58;13.40;99.90
53053;DHT22;38934;52.690;6.184;2022-07-23T02:02:24;13.40;99.90
53053;DHT22;38934;52.690;6.184;2022-07-23T02:04:50;13.40;99.90
53053;DHT22;38934;52.690;6.184;2022-07-23T02:07:15;13.50;99.90
53053;DHT22;38934;52.690;6.184;2022-07-23T02:09:41;13.50;99.90
53053;DHT22;38934;52.690;6.184;2022-07-23T02:12:07;13.50;99.90
53053;DHT22;38934;52.690;6.184;2022-07-23T02:14:33;13.50;99.90
53053;DHT22;38934;52.690;6.184;2022-07-23T02:16:58;13.60;99.90
53053;DHT22;38934;52.690;6.184;2022-07-23T02:19:24;13.60;99.90
53053;DHT22;38934;52.690;6.184;2022-07-23T02:21:50;13.60;99.90
53053;DHT22;38934;52.690;6.184;2022-07-23T02:24:16;13.60;99.90
53053;DHT22;38934;52.690;6.184;2022-07-23T02:26:41;13.50;99.90
53053;DHT22;38934;52.690;6.184;2022-07-23T02:29:07;13.50;99.90
53053;DHT22;38934;52.690;6.184;2022-07-23T02:31:33;13.50;99.90
53053;DHT22;38934;52.690;6.184;2022-07-23T02:34:00;13.40;99.90
53053;DHT22;38934;52.690;6.184;2022-07-23T02:36:26;13.50;99.90
53053;DHT22;38934;52.690;6.184;2022-07-23T02:38:51;13.30;99.90
53053;DHT22;38934;52.690;6.184;2022-07-23T02:41:17;13.30;99.90
53053;DHT22;38934;52.690;6.184;2022-07-23T02:43:43;13.20;99.90
53053;DHT22;38934;52.690;6.184;2022-07-23T02:46:08;13.20;99.90
53053;DHT22;38934;52.690;6.184;2022-07-23T02:48:34;13.70;99.90
53053;DHT22;38934;52.690;6.184;2022-07-23T02:51:00;13.10;99.90
53053;DHT22;38934;52.690;6.184;2022-07-23T02:53:25;13.10;99.90
53053;DHT22;38934;52.690;6.184;2022-07-23T02:55:51;13.10;99.90
53053;DHT22;38934;52.690;6.184;2022-07-23T02:58:17;13.00;99.90
53053;DHT22;38934;52.690;6.184;2022-07-23T03:00:43;13.10;99.90
53053;DHT22;38934;52.690;6.184;2022-07-23T03:03:08;13.00;99.90
53053;DHT22;38934;52.690;6.184;2022-07-23T03:05:34;13.40;99.90
53053;DHT22;38934;52.690;6.184;2022-07-23T03:08:00;13.00;99.90
53053;DHT22;38934;52.690;6.184;2022-07-23T03:10:26;12.90;99.90
53053;DHT22;38934;52.690;6.184;2022-07-23T03:12:51;12.90;99.90
53053;DHT22;38934;52.690;6.184;2022-07-23T03:15:18;12.90;99.90
53053;DHT22;38934;52.690;6.184;2022-07-23T03:17:44;12.80;99.90
53053;DHT22;38934;52.690;6.184;2022-07-23T03:20:10;12.80;99.90
53053;DHT22;38934;52.690;6.184;2022-07-23T03:22:35;12.80;99.90
53053;DHT22;38934;52.690;6.184;2022-07-23T03:25:02;12.70;99.90
53053;DHT22;38934;52.690;6.184;2022-07-23T03:27:29;12.70;99.90
53053;DHT22;38934;52.690;6.184;2022-07-23T03:29:58;13.20;99.90
53053;DHT22;38934;52.690;6.184;2022-07-23T03:32:24;12.70;99.90
53053;DHT22;38934;52.690;6.184;2022-07-23T03:34:50;12.70;99.90
53053;DHT22;38934;52.690;6.184;2022-07-23T03:37:17;12.70;99.90
53053;DHT22;38934;52.690;6.184;2022-07-23T03:39:43;12.70;99.90
53053;DHT22;38934;52.690;6.184;2022-07-23T03:42:08;12.70;99.90
53053;DHT22;38934;52.690;6.184;2022-07-23T03:44:34;12.70;99.90
53053;DHT22;38934;52.690;6.184;2022-07-23T03:46:59;12.70;99.90
53053;DHT22;38934;52.690;6.184;2022-07-23T03:49:25;12.70;99.90
53053;DHT22;38934;52.690;6.184;2022-07-23T03:51:51;13.30;99.90
53053;DHT22;38934;52.690;6.184;2022-07-23T03:54:16;12.70;99.90
53053;DHT22;38934;52.690;6.184;2022-07-23T03:56:42;12.60;99.90
53053;DHT22;38934;52.690;6.184;2022-07-23T03:59:08;12.60;99.90
53053;DHT22;38934;52.690;6.184;2022-07-23T04:01:34;12.70;99.90
53053;DHT22;38934;52.690;6.184;2022-07-23T04:04:01;12.70;99.90
53053;DHT22;38934;52.690;6.184;2022-07-23T04:06:26;12.70;99.90
53053;DHT22;38934;52.690;6.184;2022-07-23T04:08:52;12.60;99.90
53053;DHT22;38934;52.690;6.184;2022-07-23T04:11:18;12.70;99.90
53053;DHT22;38934;52.690;6.184;2022-07-23T04:13:43;12.70;99.90
53053;DHT22;38934;52.690;6.184;2022-07-23T04:16:09;12.70;99.90
53053;DHT22;38934;52.690;6.184;2022-07-23T04:18:34;12.70;99.90
53053;DHT22;38934;52.690;6.184;2022-07-23T04:21:00;12.70;99.90
53053;DHT22;38934;52.690;6.184;2022-07-23T04:23:26;13.00;99.90
53053;DHT22;38934;52.690;6.184;2022-07-23T04:25:51;12.70;99.90
53053;DHT22;38934;52.690;6.184;2022-07-23T04:28:17;12.80;99.90
53053;DHT22;38934;52.690;6.184;2022-07-23T04:30:43;12.80;99.90
53053;DHT22;38934;52.690;6.184;2022-07-23T04:33:08;12.80;99.90
53053;DHT22;38934;52.690;6.184;2022-07-23T04:35:34;12.90;99.90
53053;DHT22;38934;52.690;6.184;2022-07-23T04:38:01;12.90;99.90
53053;DHT22;38934;52.690;6.184;2022-07-23T04:40:27;12.90;99.90
53053;DHT22;38934;52.690;6.184;2022-07-23T04:42:53;12.90;99.90
53053;DHT22;38934;52.690;6.184;2022-07-23T04:45:18;13.00;99.90
53053;DHT22;38934;52.690;6.184;2022-07-23T04:47:44;13.00;99.90
53053;DHT22;38934;52.690;6.184;2022-07-23T04:50:10;13.00;99.90
53053;DHT22;38934;52.690;6.184;2022-07-23T04:52:35;13.00;99.90
53053;DHT22;38934;52.690;6.184;2022-07-23T04:55:01;13.00;99.90
53053;DHT22;38934;52.690;6.184;2022-07-23T04:57:27;13.10;99.90
53053;DHT22;38934;52.690;6.184;2022-07-23T04:59:52;13.10;99.90
53053;DHT22;38934;52.690;6.184;2022-07-23T05:02:18;13.20;99.90
53053;DHT22;38934;52.690;6.184;2022-07-23T05:04:43;13.20;99.90
53053;DHT22;38934;52.690;6.184;2022-07-23T05:07:09;13.20;99.90
53053;DHT22;38934;52.690;6.184;2022-07-23T05:09:34;13.30;99.90
53053;DHT22;38934;52.690;6.184;2022-07-23T05:12:00;13.30;99.90
53053;DHT22;38934;52.690;6.184;2022-07-23T05:14:26;13.50;99.90
53053;DHT22;38934;52.690;6.184;2022-07-23T05:16:53;13.50;99.90
53053;DHT22;38934;52.690;6.184;2022-07-23T05:19:19;13.50;99.90
53053;DHT22;38934;52.690;6.184;2022-07-23T05:21:44;13.60;99.90
53053;DHT22;38934;52.690;6.184;2022-07-23T05:24:10;13.70;99.90
53053;DHT22;38934;52.690;6.184;2022-07-23T05:26:36;13.80;99.90
53053;DHT22;38934;52.690;6.184;2022-07-23T05:29:01;13.80;99.90
53053;DHT22;38934;52.690;6.184;2022-07-23T05:31:27;13.90;99.90
53053;DHT22;38934;52.690;6.184;2022-07-23T05:33:53;13.90;99.90
53053;DHT22;38934;52.690;6.184;2022-07-23T05:36:18;13.90;99.90
53053;DHT22;38934;52.690;6.184;2022-07-23T05:38:44;13.90;99.90
53053;DHT22;38934;52.690;6.184;2022-07-23T05:41:09;14.00;99.90
53053;DHT22;38934;52.690;6.184;2022-07-23T05:43:35;14.60;99.90
53053;DHT22;38934;52.690;6.184;2022-07-23T05:46:00;14.10;99.90
53053;DHT22;38934;52.690;6.184;2022-07-23T05:48:26;14.20;99.90
53053;DHT22;38934;52.690;6.184;2022-07-23T05:50:52;14.20;99.90
53053;DHT22;38934;52.690;6.184;2022-07-23T05:53:18;14.30;99.90
53053;DHT22;38934;52.690;6.184;2022-07-23T05:55:43;14.30;99.90
53053;DHT22;38934;52.690;6.184;2022-07-23T05:58:09;14.40;99.90
53053;DHT22;38934;52.690;6.184;2022-07-23T06:00:34;14.40;99.90
53053;DHT22;38934;52.690;6.184;2022-07-23T06:03:00;14.50;99.90
53053;DHT22;38934;52.690;6.184;2022-07-23T06:05:26;14.60;99.90
53053;DHT22;38934;52.690;6.184;2022-07-23T06:07:52;14.70;99.90
53053;DHT22;38934;52.690;6.184;2022-07-23T06:10:18;15.00;99.90
53053;DHT22;38934;52.690;6.184;2022-07-23T06:12:44;14.90;99.90
53053;DHT22;38934;52.690;6.184;2022-07-23T06:15:10;15.10;99.90
53053;DHT22;38934;52.690;6.184;2022-07-23T06:17:37;15.20;99.90
53053;DHT22;38934;52.690;6.184;2022-07-23T06:20:09;15.30;99.90
53053;DHT22;38934;52.690;6.184;2022-07-23T06:22:35;15.40;99.90
53053;DHT22;38934;52.690;6.184;2022-07-23T06:25:01;15.50;99.90
53053;DHT22;38934;52.690;6.184;2022-07-23T06:27:26;15.60;99.90
53053;DHT22;38934;52.690;6.184;2022-07-23T06:29:52;15.70;99.90
53053;DHT22;38934;52.690;6.184;2022-07-23T06:32:18;15.80;99.90
53053;DHT22;38934;52.690;6.184;2022-07-23T06:34:43;15.80;99.90
53053;DHT22;38934;52.690;6.184;2022-07-23T06:37:09;15.90;99.90
53053;DHT22;38934;52.690;6.184;2022-07-23T06:39:35;16.00;99.90
53053;DHT22;38934;52.690;6.184;2022-07-23T06:42:00;16.00;99.90
53053;DHT22;38934;52.690;6.184;2022-07-23T06:44:26;16.10;99.90
53053;DHT22;38934;52.690;6.184;2022-07-23T06:46:52;16.10;99.90
53053;DHT22;38934;52.690;6.184;2022-07-23T06:49:17;16.50;99.90
53053;DHT22;38934;52.690;6.184;2022-07-23T06:51:43;16.30;99.90
53053;DHT22;38934;52.690;6.184;2022-07-23T06:54:09;16.40;99.90
53053;DHT22;38934;52.690;6.184;2022-07-23T06:56:34;16.50;99.90
53053;DHT22;38934;52.690;6.184;2022-07-23T06:59:00;16.80;99.90
53053;DHT22;38934;52.690;6.184;2022-07-23T07:01:26;17.00;99.90
53053;DHT22;38934;52.690;6.184;2022-07-23T07:03:51;17.00;99.90
53053;DHT22;38934;52.690;6.184;2022-07-23T07:06:17;17.20;99.90
53053;DHT22;38934;52.690;6.184;2022-07-23T07:08:43;17.30;99.90
53053;DHT22;38934;52.690;6.184;2022-07-23T07:11:09;17.60;99.90
53053;DHT22;38934;52.690;6.184;2022-07-23T07:13:36;17.90;99.90
53053;DHT22;38934;52.690;6.184;2022-07-23T07:16:02;18.20;99.90
53053;DHT22;38934;52.690;6.184;2022-07-23T07:18:27;19.00;99.90
53053;DHT22;38934;52.690;6.184;2022-07-23T07:20:53;19.10;99.90
53053;DHT22;38934;52.690;6.184;2022-07-23T07:23:19;19.50;99.90
53053;DHT22;38934;52.690;6.184;2022-07-23T07:25:46;20.10;99.90
53053;DHT22;38934;52.690;6.184;2022-07-23T07:28:12;21.00;99.90
53053;DHT22;38934;52.690;6.184;2022-07-23T07:30:37;21.80;99.90
53053;DHT22;38934;52.690;6.184;2022-07-23T07:33:03;22.50;99.90
53053;DHT22;38934;52.690;6.184;2022-07-23T07:35:29;23.30;99.90
53053;DHT22;38934;52.690;6.184;2022-07-23T07:37:54;23.00;99.90
53053;DHT22;38934;52.690;6.184;2022-07-23T07:40:20;22.90;99.90
53053;DHT22;38934;52.690;6.184;2022-07-23T07:42:48;22.80;99.90
53053;DHT22;38934;52.690;6.184;2022-07-23T07:45:13;22.30;99.90
53053;DHT22;38934;52.690;6.184;2022-07-23T07:47:40;21.80;99.90
53053;DHT22;38934;52.690;6.184;2022-07-23T07:50:06;21.20;99.90
53053;DHT22;38934;52.690;6.184;2022-07-23T07:52:34;20.90;99.90
53053;DHT22;38934;52.690;6.184;2022-07-23T07:55:04;20.80;99.90
53053;DHT22;38934;52.690;6.184;2022-07-23T07:57:30;20.90;99.90
53053;DHT22;38934;52.690;6.184;2022-07-23T07:59:56;20.80;99.90
53053;DHT22;38934;52.690;6.184;2022-07-23T08:02:22;20.70;99.90
53053;DHT22;38934;52.690;6.184;2022-07-23T08:04:47;20.30;99.90
53053;DHT22;38934;52.690;6.184;2022-07-23T08:07:14;20.10;99.90
53053;DHT22;38934;52.690;6.184;2022-07-23T08:09:40;19.70;99.90
53053;DHT22;38934;52.690;6.184;2022-07-23T08:12:06;19.90;99.90
53053;DHT22;38934;52.690;6.184;2022-07-23T08:14:31;20.50;99.90
53053;DHT22;38934;52.690;6.184;2022-07-23T08:16:57;21.70;99.90
53053;DHT22;38934;52.690;6.184;2022-07-23T08:19:22;22.80;99.90
53053;DHT22;38934;52.690;6.184;2022-07-23T08:21:48;22.90;99.90
53053;DHT22;38934;52.690;6.184;2022-07-23T08:24:14;22.50;99.90
53053;DHT22;38934;52.690;6.184;2022-07-23T08:26:39;21.80;99.90
53053;DHT22;38934;52.690;6.184;2022-07-23T08:29:05;21.20;99.90
53053;DHT22;38934;52.690;6.184;2022-07-23T08:31:31;21.80;99.90
53053;DHT22;38934;52.690;6.184;2022-07-23T08:33:58;22.80;99.90
53053;DHT22;38934;52.690;6.184;2022-07-23T08:36:24;23.70;99.90
53053;DHT22;38934;52.690;6.184;2022-07-23T08:38:53;23.40;99.90
53053;DHT22;38934;52.690;6.184;2022-07-23T08:41:20;22.70;99.90
53053;DHT22;38934;52.690;6.184;2022-07-23T08:43:45;22.20;99.90
53053;DHT22;38934;52.690;6.184;2022-07-23T08:46:12;22.10;99.90
53053;DHT22;38934;52.690;6.184;2022-07-23T08:48:38;21.90;99.90
53053;DHT22;38934;52.690;6.184;2022-07-23T08:51:05;22.10;99.90
53053;DHT22;38934;52.690;6.184;2022-07-23T08:53:32;22.80;99.90
53053;DHT22;38934;52.690;6.184;2022-07-23T08:55:59;23.70;99.90
53053;DHT22;38934;52.690;6.184;2022-07-23T08:58:27;24.40;99.90
53053;DHT22;38934;52.690;6.184;2022-07-23T09:00:53;24.60;99.90
53053;DHT22;38934;52.690;6.184;2022-07-23T09:03:30;24.00;99.90
53053;DHT22;38934;52.690;6.184;2022-07-23T09:05:57;23.00;99.90
53053;DHT22;38934;52.690;6.184;2022-07-23T09:08:38;22.40;99.90
53053;DHT22;38934;52.690;6.184;2022-07-23T09:11:06;22.90;99.90
53053;DHT22;38934;52.690;6.184;2022-07-23T09:13:51;23.90;99.90
53053;DHT22;38934;52.690;6.184;2022-07-23T09:16:31;24.80;99.00
53053;DHT22;38934;52.690;6.184;2022-07-23T09:19:04;25.40;98.10
53053;DHT22;38934;52.690;6.184;2022-07-23T09:21:35;25.80;90.60
53053;DHT22;38934;52.690;6.184;2022-07-23T09:29:22;25.30;92.30
53053;DHT22;38934;52.690;6.184;2022-07-23T09:31:51;25.20;85.00
53053;DHT22;38934;52.690;6.184;2022-07-23T09:36:43;26.10;88.60
53053;DHT22;38934;52.690;6.184;2022-07-23T09:39:10;26.50;87.00
53053;DHT22;38934;52.690;6.184;2022-07-23T09:41:38;27.00;86.30
53053;DHT22;38934;52.690;6.184;2022-07-23T09:44:17;27.20;84.60
53053;DHT22;38934;52.690;6.184;2022-07-23T09:46:45;27.00;75.60
53053;DHT22;38934;52.690;6.184;2022-07-23T09:49:21;26.50;78.30
53053;DHT22;38934;52.690;6.184;2022-07-23T09:51:59;25.60;78.10
53053;DHT22;38934;52.690;6.184;2022-07-23T09:54:32;25.40;76.10
53053;DHT22;38934;52.690;6.184;2022-07-23T09:57:03;25.80;78.60
53053;DHT22;38934;52.690;6.184;2022-07-23T09:59:38;26.00;77.80
53053;DHT22;38934;52.690;6.184;2022-07-23T10:02:07;26.10;75.50
53053;DHT22;38934;52.690;6.184;2022-07-23T10:04:33;26.30;78.80
53053;DHT22;38934;52.690;6.184;2022-07-23T10:07:03;26.50;77.60
53053;DHT22;38934;52.690;6.184;2022-07-23T10:09:32;26.40;76.30
53053;DHT22;38934;52.690;6.184;2022-07-23T10:12:02;26.20;75.90
53053;DHT22;38934;52.690;6.184;2022-07-23T10:14:50;26.30;75.40
53053;DHT22;38934;52.690;6.184;2022-07-23T10:17:17;26.20;74.90
53053;DHT22;38934;52.690;6.184;2022-07-23T10:19:43;26.20;73.90
53053;DHT22;38934;52.690;6.184;2022-07-23T10:22:18;26.20;74.20
53053;DHT22;38934;52.690;6.184;2022-07-23T10:25:32;26.10;71.90
53053;DHT22;38934;52.690;6.184;2022-07-23T10:31:03;25.80;74.80
53053;DHT22;38934;52.690;6.184;2022-07-23T10:33:55;25.00;71.50
53053;DHT22;38934;52.690;6.184;2022-07-23T10:39:34;24.10;75.90
53053;DHT22;38934;52.690;6.184;2022-07-23T10:42:13;24.20;77.30
53053;DHT22;38934;52.690;6.184;2022-07-23T10:44:41;24.00;75.60
53053;DHT22;38934;52.690;6.184;2022-07-23T10:47:08;23.70;78.60
53053;DHT22;38934;52.690;6.184;2022-07-23T10:49:47;23.90;80.70
53053;DHT22;38934;52.690;6.184;2022-07-23T10:52:27;24.10;80.90
53053;DHT22;38934;52.690;6.184;2022-07-23T10:57:27;24.20;81.70
53053;DHT22;38934;52.690;6.184;2022-07-23T11:02:31;23.90;80.90
53053;DHT22;38934;52.690;6.184;2022-07-23T11:05:18;23.90;83.00
53053;DHT22;38934;52.690;6.184;2022-07-23T11:08:14;24.00;80.80
53053;DHT22;38934;52.690;6.184;2022-07-23T11:13:51;24.50;83.50
53053;DHT22;38934;52.690;6.184;2022-07-23T11:16:22;24.70;82.40
53053;DHT22;38934;52.690;6.184;2022-07-23T11:23:58;24.50;79.60
53053;DHT22;38934;52.690;6.184;2022-07-23T11:26:43;24.50;79.30
53053;DHT22;38934;52.690;6.184;2022-07-23T11:34:39;24.10;80.30
53053;DHT22;38934;52.690;6.184;2022-07-23T11:37:07;24.00;82.10
53053;DHT22;38934;52.690;6.184;2022-07-23T11:39:33;24.10;83.10
53053;DHT22;38934;52.690;6.184;2022-07-23T11:42:01;24.10;83.20
53053;DHT22;38934;52.690;6.184;2022-07-23T11:44:28;24.10;83.20
53053;DHT22;38934;52.690;6.184;2022-07-23T11:46:58;24.10;83.80
53053;DHT22;38934;52.690;6.184;2022-07-23T11:49:25;24.20;82.80
53053;DHT22;38934;52.690;6.184;2022-07-23T11:52:04;24.20;84.50
53053;DHT22;38934;52.690;6.184;2022-07-23T11:54:31;24.30;83.50
53053;DHT22;38934;52.690;6.184;2022-07-23T11:56:57;24.40;85.20
53053;DHT22;38934;52.690;6.184;2022-07-23T11:59:25;24.50;84.50
53053;DHT22;38934;52.690;6.184;2022-07-23T12:02:04;24.50;84.70
53053;DHT22;38934;52.690;6.184;2022-07-23T12:04:44;24.40;81.70
53053;DHT22;38934;52.690;6.184;2022-07-23T12:07:30;24.50;83.10
53053;DHT22;38934;52.690;6.184;2022-07-23T12:12:44;24.40;82.80
53053;DHT22;38934;52.690;6.184;2022-07-23T12:15:11;24.30;83.60
53053;DHT22;38934;52.690;6.184;2022-07-23T12:17:39;24.00;83.60
53053;DHT22;38934;52.690;6.184;2022-07-23T12:20:08;23.90;85.00
53053;DHT22;38934;52.690;6.184;2022-07-23T12:22:41;24.00;87.00
53053;DHT22;38934;52.690;6.184;2022-07-23T12:27:38;24.50;89.30
53053;DHT22;38934;52.690;6.184;2022-07-23T12:32:47;24.70;87.50
53053;DHT22;38934;52.690;6.184;2022-07-23T12:35:13;24.80;87.90
53053;DHT22;38934;52.690;6.184;2022-07-23T12:37:41;24.80;87.10
53053;DHT22;38934;52.690;6.184;2022-07-23T12:43:26;24.80;84.30
53053;DHT22;38934;52.690;6.184;2022-07-23T12:46:09;24.90;85.30
53053;DHT22;38934;52.690;6.184;2022-07-23T12:48:36;24.60;84.90
53053;DHT22;38934;52.690;6.184;2022-07-23T12:53:46;24.70;87.90
53053;DHT22;38934;52.690;6.184;2022-07-23T12:56:16;25.00;89.00
53053;DHT22;38934;52.690;6.184;2022-07-23T12:58:49;25.10;88.10
53053;DHT22;38934;52.690;6.184;2022-07-23T13:01:26;25.20;86.80
53053;DHT22;38934;52.690;6.184;2022-07-23T13:06:21;25.70;87.00
53053;DHT22;38934;52.690;6.184;2022-07-23T13:08:46;25.70;87.40
53053;DHT22;38934;52.690;6.184;2022-07-23T13:11:12;25.80;87.40
53053;DHT22;38934;52.690;6.184;2022-07-23T13:13:38;26.00;87.70
53053;DHT22;38934;52.690;6.184;2022-07-23T13:16:04;25.90;86.20
53053;DHT22;38934;52.690;6.184;2022-07-23T13:18:30;25.70;85.00
53053;DHT22;38934;52.690;6.184;2022-07-23T13:20:56;25.40;84.90
53053;DHT22;38934;52.690;6.184;2022-07-23T13:23:23;25.10;85.10
53053;DHT22;38934;52.690;6.184;2022-07-23T13:25:49;24.50;84.20
53053;DHT22;38934;52.690;6.184;2022-07-23T13:28:16;24.20;85.40
53053;DHT22;38934;52.690;6.184;2022-07-23T13:30:42;24.00;87.40
53053;DHT22;38934;52.690;6.184;2022-07-23T13:33:08;23.90;87.80
53053;DHT22;38934;52.690;6.184;2022-07-23T13:35:35;23.80;88.60
53053;DHT22;38934;52.690;6.184;2022-07-23T13:38:03;23.70;88.60
53053;DHT22;38934;52.690;6.184;2022-07-23T13:40:28;23.70;90.10
53053;DHT22;38934;52.690;6.184;2022-07-23T13:42:54;23.80;91.00
53053;DHT22;38934;52.690;6.184;2022-07-23T13:45:20;24.00;91.00
53053;DHT22;38934;52.690;6.184;2022-07-23T13:47:45;24.20;91.00
53053;DHT22;38934;52.690;6.184;2022-07-23T13:50:11;24.10;90.50
53053;DHT22;38934;52.690;6.184;2022-07-23T13:52:37;24.10;91.20
53053;DHT22;38934;52.690;6.184;2022-07-23T13:55:04;24.20;90.60
53053;DHT22;38934;52.690;6.184;2022-07-23T13:57:31;24.10;90.50
53053;DHT22;38934;52.690;6.184;2022-07-23T13:59:57;24.00;91.40
53053;DHT22;38934;52.690;6.184;2022-07-23T14:02:23;24.00;90.60
53053;DHT22;38934;52.690;6.184;2022-07-23T14:04:49;23.90;91.40
53053;DHT22;38934;52.690;6.184;2022-07-23T14:07:15;23.90;91.40
53053;DHT22;38934;52.690;6.184;2022-07-23T14:09:41;24.00;91.60
53053;DHT22;38934;52.690;6.184;2022-07-23T14:12:07;24.10;91.80
53053;DHT22;38934;52.690;6.184;2022-07-23T14:14:33;24.00;91.80
53053;DHT22;38934;52.690;6.184;2022-07-23T14:16:59;24.00;92.20
53053;DHT22;38934;52.690;6.184;2022-07-23T14:19:25;24.00;91.60
53053;DHT22;38934;52.690;6.184;2022-07-23T14:21:51;23.90;91.80
53053;DHT22;38934;52.690;6.184;2022-07-23T14:24:16;23.90;92.80
53053;DHT22;38934;52.690;6.184;2022-07-23T14:26:42;24.00;92.20
53053;DHT22;38934;52.690;6.184;2022-07-23T14:29:08;23.90;92.40
53053;DHT22;38934;52.690;6.184;2022-07-23T14:31:34;23.70;93.00
53053;DHT22;38934;52.690;6.184;2022-07-23T14:34:00;23.70;93.40
53053;DHT22;38934;52.690;6.184;2022-07-23T14:36:25;23.60;93.50
53053;DHT22;38934;52.690;6.184;2022-07-23T14:38:51;23.60;94.70
53053;DHT22;38934;52.690;6.184;2022-07-23T14:41:17;23.60;95.70
53053;DHT22;38934;52.690;6.184;2022-07-23T14:43:43;23.80;96.50
53053;DHT22;38934;52.690;6.184;2022-07-23T14:46:10;23.90;95.80
53053;DHT22;38934;52.690;6.184;2022-07-23T14:48:36;24.10;96.10
53053;DHT22;38934;52.690;6.184;2022-07-23T14:51:02;24.20;95.70
53053;DHT22;38934;52.690;6.184;2022-07-23T14:53:28;24.40;95.80
53053;DHT22;38934;52.690;6.184;2022-07-23T14:55:53;24.60;95.80
53053;DHT22;38934;52.690;6.184;2022-07-23T14:58:20;24.90;96.00
53053;DHT22;38934;52.690;6.184;2022-07-23T15:00:45;25.00;94.90
53053;DHT22;38934;52.690;6.184;2022-07-23T15:03:11;25.10;94.30
53053;DHT22;38934;52.690;6.184;2022-07-23T15:05:36;25.10;93.90
53053;DHT22;38934;52.690;6.184;2022-07-23T15:08:02;25.30;93.40
53053;DHT22;38934;52.690;6.184;2022-07-23T15:10:28;25.20;93.20
53053;DHT22;38934;52.690;6.184;2022-07-23T15:12:53;25.20;93.30
53053;DHT22;38934;52.690;6.184;2022-07-23T15:15:19;25.20;92.80
53053;DHT22;38934;52.690;6.184;2022-07-23T15:17:45;25.20;92.80
53053;DHT22;38934;52.690;6.184;2022-07-23T15:20:10;25.20;92.70
53053;DHT22;38934;52.690;6.184;2022-07-23T15:22:36;25.00;92.50
53053;DHT22;38934;52.690;6.184;2022-07-23T15:25:02;24.90;92.80
53053;DHT22;38934;52.690;6.184;2022-07-23T15:27:27;24.90;92.90
53053;DHT22;38934;52.690;6.184;2022-07-23T15:29:53;25.00;93.30
53053;DHT22;38934;52.690;6.184;2022-07-23T15:32:19;25.00;93.40
53053;DHT22;38934;52.690;6.184;2022-07-23T15:34:44;25.10;93.30
53053;DHT22;38934;52.690;6.184;2022-07-23T15:37:10;25.30;93.10
53053;DHT22;38934;52.690;6.184;2022-07-23T15:39:35;25.30;93.40
53053;DHT22;38934;52.690;6.184;2022-07-23T15:42:02;25.40;93.30
53053;DHT22;38934;52.690;6.184;2022-07-23T15:44:28;25.50;92.70
53053;DHT22;38934;52.690;6.184;2022-07-23T15:46:54;25.60;92.30
53053;DHT22;38934;52.690;6.184;2022-07-23T15:49:21;25.60;91.80
53053;DHT22;38934;52.690;6.184;2022-07-23T15:51:46;25.70;91.40
53053;DHT22;38934;52.690;6.184;2022-07-23T15:54:12;25.50;91.50
53053;DHT22;38934;52.690;6.184;2022-07-23T15:56:38;25.50;91.50
53053;DHT22;38934;52.690;6.184;2022-07-23T15:59:04;25.50;91.30
53053;DHT22;38934;52.690;6.184;2022-07-23T16:01:30;25.40;91.00
53053;DHT22;38934;52.690;6.184;2022-07-23T16:03:56;25.20;91.00
53053;DHT22;38934;52.690;6.184;2022-07-23T16:06:25;25.00;91.50
53053;DHT22;38934;52.690;6.184;2022-07-23T16:08:50;25.00;92.60
53053;DHT22;38934;52.690;6.184;2022-07-23T16:11:16;25.00;92.10
53053;DHT22;38934;52.690;6.184;2022-07-23T16:13:42;25.00;92.00
53053;DHT22;38934;52.690;6.184;2022-07-23T16:16:09;25.00;92.20
53053;DHT22;38934;52.690;6.184;2022-07-23T16:18:35;25.50;92.50